createdAt,value
2022-11-29T00:01:16.984Z,101055.41
2022-11-29T00:03:43.691Z,101050.78
2022-11-29T00:06:14.778Z,101045.44
2022-11-29T00:08:42.305Z,101043.72
2022-11-29T00:11:35.075Z,101035.22
2022-11-29T00:14:01.884Z,101055.16
2022-11-29T00:16:28.920Z,101047.13
2022-11-29T00:18:55.643Z,101045.22
2022-11-29T00:21:22.162Z,101038.63
2022-11-29T00:23:48.646Z,101043.97
2022-11-29T00:26:15.210Z,101028.91
2022-11-29T00:28:41.816Z,101022.31
2022-11-29T00:31:25.428Z,101028.91
2022-11-29T00:33:52.919Z,101036.16
2022-11-29T00:36:19.912Z,101030.75
2022-11-29T00:38:46.735Z,101031.47
2022-11-29T00:41:13.280Z,101033.03
2022-11-29T00:43:40.606Z,101025.03
2022-11-29T00:46:08.309Z,101018.78
2022-11-29T00:48:35.690Z,101046.47
2022-11-29T00:51:03.913Z,101043.41
2022-11-29T00:53:30.433Z,101039.13
2022-11-29T00:55:57.218Z,101037.31
2022-11-29T00:58:23.812Z,101036.47
2022-11-29T01:00:50.380Z,101037.31
2022-11-29T01:03:17.474Z,101031.25
2022-11-29T01:05:44.678Z,101037.81
2022-11-29T01:08:12.057Z,101028.97
2022-11-29T01:10:38.717Z,101031.72
2022-11-29T01:13:05.834Z,101048.06
2022-11-29T01:15:32.559Z,101025.59
2022-11-29T01:17:59.366Z,101032.56
2022-11-29T01:20:26.016Z,101028.91
2022-11-29T01:22:52.566Z,101029.88
2022-11-29T01:25:19.512Z,101033.03
2022-11-29T01:27:46.674Z,101031.13
2022-11-29T01:30:13.366Z,101026.75
2022-11-29T01:32:39.881Z,101027.50
2022-11-29T01:35:07.215Z,101025.78
2022-11-29T01:37:33.909Z,101026.28
2022-11-29T01:40:00.459Z,101025.78
2022-11-29T01:42:27.128Z,101037.72
2022-11-29T01:45:05.246Z,101019.34
2022-11-29T01:47:32.539Z,101018.50
2022-11-29T01:49:59.885Z,101009.75
2022-11-29T01:52:29.951Z,101029.47
2022-11-29T01:55:00.609Z,101026.91
2022-11-29T01:57:27.470Z,101022.88
2022-11-29T02:00:02.396Z,101025.69
2022-11-29T02:02:34.417Z,101022.03
2022-11-29T02:05:02.577Z,101027.38
2022-11-29T02:07:29.362Z,101019.34
2022-11-29T02:09:55.931Z,101022.88
2022-11-29T02:12:31.304Z,101026.16
2022-11-29T02:15:07.918Z,101025.97
2022-11-29T02:18:04.274Z,101019.75
2022-11-29T02:21:08.104Z,101018.91
2022-11-29T02:24:12.366Z,101008.31
2022-11-29T02:32:35.816Z,101005.31
2022-11-29T02:35:24.040Z,101002.00
2022-11-29T02:38:09.404Z,101010.88
2022-11-29T02:41:17.564Z,100985.69
2022-11-29T02:44:03.059Z,100991.69
2022-11-29T02:46:52.477Z,100985.94
2022-11-29T02:49:38.220Z,100983.47
2022-11-29T02:52:17.237Z,100987.16
2022-11-29T02:54:47.336Z,100983.72
2022-11-29T02:57:40.329Z,100978.84
2022-11-29T03:00:20.124Z,100980.53
2022-11-29T03:03:04.138Z,100967.56
2022-11-29T03:06:09.343Z,100972.53
2022-11-29T03:09:03.937Z,100986.06
2022-11-29T03:11:48.799Z,100982.41
2022-11-29T03:14:21.069Z,100985.59
2022-11-29T03:17:17.262Z,100987.16
2022-11-29T03:19:46.780Z,100986.97
2022-11-29T03:22:26.506Z,100972.34
2022-11-29T03:25:06.337Z,100987.44
2022-11-29T03:27:43.291Z,100990.13
2022-11-29T03:30:13.860Z,100988.91
2022-11-29T03:32:47.971Z,100980.06
2022-11-29T03:36:15.934Z,100993.81
2022-11-29T03:38:47.132Z,100989.22
2022-11-29T03:41:19.229Z,100995.38
2022-11-29T03:44:04.155Z,100992.84
2022-11-29T03:46:38.189Z,100993.56
2022-11-29T03:49:16.492Z,100998.19
2022-11-29T03:52:20.816Z,100986.53
2022-11-29T03:55:05.989Z,100993.81
2022-11-29T03:57:57.420Z,100981.88
2022-11-29T04:00:24.682Z,100994.03
2022-11-29T04:03:24.843Z,100991.38
2022-11-29T04:06:33.628Z,100981.16
2022-11-29T04:09:30.105Z,100973.53
2022-11-29T04:12:15.129Z,100978.78
2022-11-29T04:15:06.438Z,100987.28
2022-11-29T04:18:08.478Z,100993.63
2022-11-29T04:21:00.625Z,100991.81
2022-11-29T04:23:51.713Z,100990.22
2022-11-29T04:26:30.866Z,100985.13
2022-11-29T04:29:00.242Z,100984.50
2022-11-29T04:31:32.619Z,100983.75
2022-11-29T04:33:59.155Z,100990.94
2022-11-29T04:36:38.809Z,100982.28
2022-11-29T04:39:29.077Z,100971.97
2022-11-29T04:42:20.478Z,100990.31
2022-11-29T04:45:31.341Z,100986.28
2022-11-29T04:48:07.093Z,100991.41
2022-11-29T04:50:51.826Z,100987.03
2022-11-29T04:53:33.629Z,100977.66
2022-11-29T04:56:10.617Z,100991.88
2022-11-29T04:59:02.105Z,100994.44
2022-11-29T05:01:38.732Z,100991.63
2022-11-29T05:04:20.093Z,100998.91
2022-11-29T05:07:11.763Z,101001.38
2022-11-29T05:10:14.253Z,101003.31
2022-11-29T05:13:16.333Z,101008.53
2022-11-29T05:15:45.956Z,101000.50
2022-11-29T05:18:18.472Z,100998.91
2022-11-29T05:21:11.118Z,101003.06
2022-11-29T05:24:05.869Z,101007.47
2022-11-29T05:27:08.225Z,101008.28
2022-11-29T05:29:55.551Z,101010.97
2022-11-29T05:32:57.301Z,101015.09
2022-11-29T05:35:45.223Z,101013.81
2022-11-29T05:38:38.060Z,101018.03
2022-11-29T05:41:21.098Z,101007.25
2022-11-29T05:44:09.441Z,101009.56
2022-11-29T05:46:56.814Z,101012.97
2022-11-29T05:49:32.224Z,101020.16
2022-11-29T05:52:20.545Z,101019.16
2022-11-29T05:54:53.162Z,101002.84
2022-11-29T05:57:47.550Z,101014.56
2022-11-29T06:00:16.848Z,101018.09
2022-11-29T06:02:56.156Z,101019.69
2022-11-29T06:05:47.590Z,101018.81
2022-11-29T06:08:44.651Z,101020.28
2022-11-29T06:11:22.046Z,101015.78
2022-11-29T06:14:07.780Z,101023.56
2022-11-29T06:16:53.127Z,101025.28
2022-11-29T06:19:44.549Z,101030.38
2022-11-29T06:22:35.710Z,101032.84
2022-11-29T06:25:39.291Z,101034.31
2022-11-29T06:28:30.687Z,101037.72
2022-11-29T06:31:18.737Z,101030.63
2022-11-29T06:33:51.084Z,101025.06
2022-11-29T06:36:20.083Z,101031.25
2022-11-29T06:38:47.174Z,101031.38
2022-11-29T06:41:18.744Z,101027.84
2022-11-29T06:43:46.291Z,101036.50
2022-11-29T06:46:29.299Z,101036.50
2022-11-29T06:49:31.183Z,101031.72
2022-11-29T06:52:15.380Z,101044.00
2022-11-29T06:55:01.208Z,101040.47
2022-11-29T06:57:46.142Z,101041.34
2022-11-29T07:00:38.783Z,101045.72
2022-11-29T07:03:26.990Z,101054.59
2022-11-29T07:05:53.866Z,101034.53
2022-11-29T07:08:23.265Z,101043.28
2022-11-29T07:10:54.062Z,101040.72
2022-11-29T07:13:21.668Z,101035.38
2022-11-29T07:16:14.226Z,101003.00
2022-11-29T07:18:47.524Z,101038.53
2022-11-29T07:21:30.800Z,101045.97
2022-11-29T07:24:07.514Z,101026.72
2022-11-29T07:26:59.448Z,101016.75
2022-11-29T07:29:32.610Z,101043.28
2022-11-29T07:32:08.497Z,101045.72
2022-11-29T07:34:50.063Z,101041.34
2022-11-29T07:37:36.590Z,101041.59
2022-11-29T07:40:14.035Z,101038.66
2022-11-29T07:43:08.601Z,101052.06
2022-11-29T07:45:39.135Z,101052.81
2022-11-29T07:48:07.041Z,101030.63
2022-11-29T07:50:35.658Z,101049.66
2022-11-29T07:53:02.550Z,101042.59
2022-11-29T07:55:29.845Z,101047.22
2022-11-29T07:57:56.548Z,101043.47
2022-11-29T08:00:23.632Z,101042.13
2022-11-29T08:02:51.281Z,101033.38
2022-11-29T08:05:18.622Z,101056.22
2022-11-29T08:07:46.536Z,101048.31
2022-11-29T08:10:15.667Z,101057.47
2022-11-29T08:12:46.593Z,101061.59
2022-11-29T08:15:14.296Z,101059.53
2022-11-29T08:17:41.056Z,101055.03
2022-11-29T08:20:09.329Z,101066.34
2022-11-29T08:22:36.120Z,101041.28
2022-11-29T08:25:03.476Z,101061.56
2022-11-29T08:27:30.497Z,101050.63
2022-11-29T08:29:57.141Z,101060.13
2022-11-29T08:32:23.763Z,101069.84
2022-11-29T08:34:50.575Z,101049.91
2022-11-29T08:37:17.330Z,101037.97
2022-11-29T08:39:44.393Z,101062.78
2022-11-29T08:42:11.043Z,101055.00
2022-11-29T08:44:37.605Z,101066.03
2022-11-29T08:47:22.896Z,101047.31
2022-11-29T08:50:01.626Z,101061.41
2022-11-29T08:52:48.371Z,101073.22
2022-11-29T08:55:15.971Z,101066.53
2022-11-29T08:57:42.670Z,101073.22
2022-11-29T09:00:10.511Z,101073.72
2022-11-29T09:02:37.539Z,101065.31
2022-11-29T09:05:06.358Z,101067.16
2022-11-29T09:07:33.430Z,101086.84
2022-11-29T09:10:04.993Z,101078.31
2022-11-29T09:12:32.795Z,101082.72
2022-11-29T09:14:59.742Z,101084.19
2022-11-29T09:17:26.747Z,101082.69
2022-11-29T09:19:53.404Z,101093.88
2022-11-29T09:22:20.123Z,101070.50
2022-11-29T09:24:47.445Z,101082.16
2022-11-29T09:27:14.375Z,101098.91
2022-11-29T09:29:41.005Z,101085.75
2022-11-29T09:32:07.797Z,101075.03
2022-11-29T09:34:34.681Z,101089.63
2022-11-29T09:37:01.824Z,101075.28
2022-11-29T09:39:28.688Z,101073.06
2022-11-29T09:42:01.143Z,101093.13
2022-11-29T09:44:30.711Z,101092.00
2022-11-29T09:47:16.153Z,101097.06
2022-11-29T09:50:17.039Z,101084.13
2022-11-29T09:52:55.460Z,101083.75
2022-11-29T09:56:09.976Z,101097.19
2022-11-29T09:58:57.336Z,101086.44
2022-11-29T10:01:28.789Z,101091.16
2022-11-29T10:04:00.954Z,101086.78
2022-11-29T10:06:38.912Z,101092.91
2022-11-29T10:09:24.175Z,101087.34
2022-11-29T10:11:56.686Z,101091.53
2022-11-29T10:14:30.517Z,101073.72
2022-11-29T10:17:15.986Z,101079.69
2022-11-29T10:19:56.123Z,101079.97
2022-11-29T10:22:44.001Z,101072.28
2022-11-29T10:25:20.820Z,101066.06
2022-11-29T10:27:47.473Z,101076.31
2022-11-29T10:30:17.324Z,101069.41
2022-11-29T10:32:54.944Z,101075.06
2022-11-29T10:35:22.474Z,101061.19
2022-11-29T10:38:28.630Z,101069.69
2022-11-29T10:40:44.219Z,101071.00
2022-11-29T10:43:10.878Z,101057.97
2022-11-29T10:45:44.353Z,101055.81
2022-11-29T10:48:16.968Z,101070.72
2022-11-29T10:50:45.653Z,101054.34
2022-11-29T10:53:48.450Z,101059.19
2022-11-29T10:56:17.814Z,101055.78
2022-11-29T10:59:09.598Z,101058.34
2022-11-29T11:01:46.781Z,101049.28
2022-11-29T11:04:44.545Z,101050.84
2022-11-29T11:07:28.235Z,101051.28
2022-11-29T11:09:57.086Z,101048.13
2022-11-29T11:12:29.819Z,101052.53
2022-11-29T11:15:26.528Z,101054.94
2022-11-29T11:18:01.448Z,101047.75
2022-11-29T11:20:30.722Z,101053.69
2022-11-29T11:23:07.438Z,101049.56
2022-11-29T11:25:39.914Z,101045.03
2022-11-29T11:28:25.504Z,101049.94
2022-11-29T11:31:05.727Z,101058.31
2022-11-29T11:33:43.705Z,101055.50
2022-11-29T11:36:28.523Z,101054.06
2022-11-29T11:39:27.679Z,101059.06
2022-11-29T11:42:13.053Z,101038.56
2022-11-29T11:44:50.481Z,101053.59
2022-11-29T11:47:27.178Z,101043.78
2022-11-29T11:50:04.905Z,101063.00
2022-11-29T11:52:50.354Z,101064.25
2022-11-29T11:55:27.037Z,101055.22
2022-11-29T11:58:16.360Z,101061.91
2022-11-29T12:01:04.803Z,101067.63
2022-11-29T12:03:34.067Z,101060.59
2022-11-29T12:06:38.766Z,101068.22
2022-11-29T12:09:38.986Z,101071.91
2022-11-29T12:12:35.759Z,101066.25
2022-11-29T12:15:22.556Z,101069.94
2022-11-29T12:18:06.361Z,101059.78
2022-11-29T12:20:39.923Z,101055.78
2022-11-29T12:23:24.200Z,101056.66
2022-11-29T12:25:58.220Z,101062.63
2022-11-29T12:28:33.935Z,101064.91
2022-11-29T12:31:25.039Z,101064.75
2022-11-29T12:33:51.619Z,101062.38
2022-11-29T12:36:50.356Z,101062.22
2022-11-29T12:39:35.293Z,101065.47
2022-11-29T12:42:20.279Z,101057.38
2022-11-29T12:44:53.036Z,101063.19
2022-11-29T12:47:37.692Z,101061.97
2022-11-29T12:50:07.486Z,101065.09
2022-11-29T12:52:46.193Z,101057.34
2022-11-29T12:55:38.821Z,101060.44
2022-11-29T12:58:22.798Z,101062.31
2022-11-29T13:01:19.844Z,101051.50
2022-11-29T13:04:08.272Z,101062.44
2022-11-29T13:06:48.585Z,101057.91
2022-11-29T13:09:24.155Z,101057.34
2022-11-29T13:12:26.257Z,101055.91
2022-11-29T13:15:09.429Z,101045.44
2022-11-29T13:18:11.550Z,101051.66
2022-11-29T13:20:59.428Z,101050.41
2022-11-29T13:23:46.122Z,101051.72
2022-11-29T13:26:19.417Z,101034.97
2022-11-29T13:28:48.807Z,101041.22
2022-11-29T13:31:21.566Z,101056.50
2022-11-29T13:34:06.428Z,101054.81
2022-11-29T13:42:16.322Z,101058.38
2022-11-29T13:44:50.680Z,101061.91
2022-11-29T13:47:19.460Z,101060.09
2022-11-29T13:49:49.074Z,101059.06
2022-11-29T13:52:40.450Z,101061.06
2022-11-29T13:55:21.874Z,101048.88
2022-11-29T13:58:15.464Z,101064.31
2022-11-29T14:00:44.023Z,101054.09
2022-11-29T14:03:19.775Z,101054.25
2022-11-29T14:05:52.401Z,101043.34
2022-11-29T14:08:26.816Z,101047.56
2022-11-29T14:10:56.620Z,101041.47
2022-11-29T14:13:46.306Z,101034.09
2022-11-29T14:16:27.920Z,101040.47
2022-11-29T14:19:21.974Z,101044.53
2022-11-29T14:22:07.001Z,101050.19
2022-11-29T14:24:36.483Z,101042.97
2022-11-29T14:27:05.989Z,101048.22
2022-11-29T14:29:47.710Z,101047.50
2022-11-29T14:32:24.595Z,101045.38
2022-11-29T14:35:09.899Z,101047.75
2022-11-29T14:38:14.631Z,101062.47
2022-11-29T14:40:41.382Z,101056.91
2022-11-29T14:43:26.115Z,101053.50
2022-11-29T14:46:11.481Z,101046.47
2022-11-29T14:48:38.396Z,101057.59
2022-11-29T14:51:16.658Z,101055.06
2022-11-29T14:53:46.264Z,101056.06
2022-11-29T14:56:31.700Z,101060.97
2022-11-29T14:59:35.665Z,101064.19
2022-11-29T15:02:07.759Z,101061.31
2022-11-29T15:04:36.672Z,101057.44
2022-11-29T15:07:05.542Z,101060.41
2022-11-29T15:09:34.756Z,101059.69
2022-11-29T15:12:13.118Z,101057.84
2022-11-29T15:14:46.246Z,101061.53
2022-11-29T15:17:32.157Z,101064.59
2022-11-29T15:20:23.025Z,101066.84
2022-11-29T15:23:00.788Z,101053.19
2022-11-29T15:25:31.719Z,101057.59
2022-11-29T15:27:59.641Z,101059.56
2022-11-29T15:30:32.309Z,101060.66
2022-11-29T15:33:00.605Z,101058.13
2022-11-29T15:35:27.709Z,101050.44
2022-11-29T15:37:54.922Z,101049.53
2022-11-29T15:40:26.396Z,101054.75
2022-11-29T15:43:15.314Z,101061.25
2022-11-29T15:45:46.367Z,101065.88
2022-11-29T15:48:26.334Z,101058.09
2022-11-29T15:51:20.117Z,101065.53
2022-11-29T15:54:12.801Z,101057.03
2022-11-29T15:56:53.501Z,101048.53
2022-11-29T15:59:29.131Z,101049.28
2022-11-29T16:02:00.487Z,101052.94
2022-11-29T16:04:27.284Z,101053.31
2022-11-29T16:06:56.388Z,101048.34
2022-11-29T16:09:36.126Z,101043.13
2022-11-29T16:12:03.515Z,101062.13
2022-11-29T16:14:30.117Z,101056.16
2022-11-29T16:17:00.783Z,101059.13
2022-11-29T16:19:30.437Z,101060.91
2022-11-29T16:21:59.679Z,101066.50
2022-11-29T16:24:26.719Z,101066.03
2022-11-29T16:26:54.002Z,101057.63
2022-11-29T16:29:34.607Z,101067.50
2022-11-29T16:32:30.476Z,101070.56
2022-11-29T16:35:05.916Z,101071.53
2022-11-29T16:37:42.500Z,101069.84
2022-11-29T16:40:22.826Z,101078.84
2022-11-29T16:43:04.732Z,101073.03
2022-11-29T16:45:33.695Z,101072.28
2022-11-29T16:48:01.834Z,101075.19
2022-11-29T16:50:32.608Z,101085.56
2022-11-29T16:53:33.848Z,101086.78
2022-11-29T16:56:00.523Z,101074.72
2022-11-29T16:58:28.081Z,101076.91
2022-11-29T17:00:55.392Z,101080.56
2022-11-29T17:03:22.607Z,101084.69
2022-11-29T17:05:49.883Z,101088.25
2022-11-29T17:08:16.558Z,101092.13
2022-11-29T17:10:43.128Z,101087.13
2022-11-29T17:13:11.056Z,101098.09
2022-11-29T17:15:37.594Z,101095.66
2022-11-29T17:18:04.240Z,101093.44
2022-11-29T17:20:30.878Z,101092.63
2022-11-29T17:22:57.539Z,101094.19
2022-11-29T17:25:24.310Z,101093.69
2022-11-29T17:27:50.907Z,101091.38
2022-11-29T17:30:17.740Z,101096.34
2022-11-29T17:32:44.286Z,101094.75
2022-11-29T17:35:10.931Z,101104.59
2022-11-29T17:37:37.484Z,101103.84
2022-11-29T17:40:04.490Z,101110.41
2022-11-29T17:42:31.023Z,101106.25
2022-11-29T17:44:57.570Z,101107.72
2022-11-29T17:47:24.215Z,101101.38
2022-11-29T17:49:50.842Z,101114.09
2022-11-29T17:52:17.489Z,101112.63
2022-11-29T17:54:44.194Z,101117.59
2022-11-29T17:57:10.779Z,101113.44
2022-11-29T17:59:37.346Z,101110.25
2022-11-29T18:02:04.345Z,101111.31
2022-11-29T18:04:30.953Z,101115.09
2022-11-29T18:06:57.540Z,101123.34
2022-11-29T18:09:24.185Z,101121.84
2022-11-29T18:11:50.955Z,101122.53
2022-11-29T18:14:28.484Z,101122.75
2022-11-29T18:16:55.261Z,101130.16
2022-11-29T18:19:23.396Z,101126.84
2022-11-29T18:21:52.841Z,101123.69
2022-11-29T18:24:19.723Z,101133.00
2022-11-29T18:26:47.232Z,101133.22
2022-11-29T18:29:14.162Z,101132.03
2022-11-29T18:31:43.133Z,101142.94
2022-11-29T18:34:11.337Z,101149.25
2022-11-29T18:36:43.445Z,101151.41
2022-11-29T18:39:14.098Z,101157.19
2022-11-29T18:41:45.208Z,101149.06
2022-11-29T18:44:13.789Z,101153.88
2022-11-29T18:46:43.159Z,101156.84
2022-11-29T18:49:12.308Z,101153.44
2022-11-29T18:51:39.162Z,101166.03
2022-11-29T18:54:06.527Z,101158.13
2022-11-29T18:56:35.110Z,101159.09
2022-11-29T18:59:05.983Z,101164.22
2022-11-29T19:01:34.777Z,101161.56
2022-11-29T19:04:02.154Z,101166.34
2022-11-29T19:06:38.613Z,101178.81
2022-11-29T19:09:07.479Z,101181.72
2022-11-29T19:11:34.488Z,101184.72
2022-11-29T19:14:08.040Z,101189.53
2022-11-29T19:16:34.910Z,101180.44
2022-11-29T19:19:01.967Z,101189.38
2022-11-29T19:21:40.390Z,101198.13
2022-11-29T19:24:14.059Z,101188.38
2022-11-29T19:26:40.852Z,101183.66
2022-11-29T19:29:07.561Z,101198.72
2022-11-29T19:31:34.170Z,101195.94
2022-11-29T19:34:00.757Z,101202.25
2022-11-29T19:36:31.635Z,101204.25
2022-11-29T19:39:00.760Z,101196.66
2022-11-29T19:41:29.134Z,101202.84
2022-11-29T19:43:57.457Z,101204.97
2022-11-29T19:46:30.116Z,101202.50
2022-11-29T19:48:57.926Z,101200.69
2022-11-29T19:51:26.019Z,101187.97
2022-11-29T19:53:59.041Z,101201.22
2022-11-29T19:56:26.180Z,101179.84
2022-11-29T19:58:53.175Z,101180.34
2022-11-29T20:01:26.124Z,101197.22
2022-11-29T20:03:55.984Z,101200.94
2022-11-29T20:06:22.889Z,101197.44
2022-11-29T20:08:49.702Z,101177.97
2022-11-29T20:11:16.220Z,101200.41
2022-11-29T20:13:45.070Z,101178.16
2022-11-29T20:16:15.024Z,101182.75
2022-11-29T20:18:50.126Z,101201.66
2022-11-29T20:21:24.073Z,101194.72
2022-11-29T20:24:00.320Z,101189.78
2022-11-29T20:26:28.483Z,101198.84
2022-11-29T20:28:55.122Z,101193.25
2022-11-29T20:31:23.245Z,101205.41
2022-11-29T20:33:52.643Z,101198.00
2022-11-29T20:36:47.202Z,101203.53
2022-11-29T20:39:37.592Z,101203.63
2022-11-29T20:42:36.620Z,101210.66
2022-11-29T20:45:10.990Z,101211.53
2022-11-29T20:47:46.602Z,101209.69
2022-11-29T20:50:31.457Z,101210.56
2022-11-29T20:53:19.187Z,101215.13
2022-11-29T20:55:48.234Z,101217.16
2022-11-29T20:58:15.532Z,101217.16
2022-11-29T21:00:42.343Z,101213.63
2022-11-29T21:03:12.357Z,101198.50
2022-11-29T21:05:39.042Z,101208.56
2022-11-29T21:08:06.053Z,101202.59
2022-11-29T21:10:33.397Z,101199.28
2022-11-29T21:13:00.239Z,101197.78
2022-11-29T21:15:27.215Z,101206.91
2022-11-29T21:17:54.086Z,101205.38
2022-11-29T21:20:23.857Z,101206.41
2022-11-29T21:22:50.347Z,101202.25
2022-11-29T21:25:26.634Z,101198.81
2022-11-29T21:27:54.884Z,101201.47
2022-11-29T21:30:24.028Z,101198.44
2022-11-29T21:32:50.910Z,101192.25
2022-11-29T21:35:17.573Z,101187.41
2022-11-29T21:37:44.945Z,101203.00
2022-11-29T21:40:12.731Z,101195.66
2022-11-29T21:42:39.687Z,101198.41
2022-11-29T21:45:13.300Z,101200.97
2022-11-29T21:47:42.196Z,101183.50
2022-11-29T21:50:09.155Z,101193.09
2022-11-29T21:52:35.775Z,101180.94
2022-11-29T21:55:02.408Z,101177.72
2022-11-29T21:57:28.979Z,101177.91
2022-11-29T21:59:55.790Z,101179.25
2022-11-29T22:02:23.219Z,101176.59
2022-11-29T22:04:49.904Z,101186.38
2022-11-29T22:07:16.610Z,101182.31
2022-11-29T22:09:43.252Z,101184.09
2022-11-29T22:12:32.533Z,101170.13
2022-11-29T22:14:56.389Z,101174.69
2022-11-29T22:17:22.984Z,101175.75
2022-11-29T22:19:49.581Z,101163.47
2022-11-29T22:22:16.150Z,101174.97
2022-11-29T22:24:42.726Z,101161.94
2022-11-29T22:27:09.327Z,101176.88
2022-11-29T22:29:35.894Z,101172.78
2022-11-29T22:32:02.833Z,101157.19
2022-11-29T22:34:29.448Z,101167.84
2022-11-29T22:36:56.508Z,101175.06
2022-11-29T22:39:24.557Z,101161.19
2022-11-29T22:41:54.719Z,101165.53
2022-11-29T22:44:21.772Z,101169.94
2022-11-29T22:46:50.377Z,101163.66
2022-11-29T22:49:17.039Z,101161.84
2022-11-29T22:51:43.750Z,101163.84
2022-11-29T22:54:17.956Z,101171.84
2022-11-29T22:56:45.774Z,101160.44
2022-11-29T22:59:13.193Z,101161.19
2022-11-29T23:01:41.225Z,101161.28
2022-11-29T23:04:09.277Z,101161.19
2022-11-29T23:06:38.249Z,101170.88
2022-11-29T23:09:12.067Z,101171.72
2022-11-29T23:11:39.148Z,101167.28
2022-11-29T23:14:05.738Z,101175.16
2022-11-29T23:16:32.936Z,101176.78
2022-11-29T23:19:00.903Z,101172.31
2022-11-29T23:21:28.833Z,101170.03
2022-11-29T23:23:56.744Z,101176.78
2022-11-29T23:26:40.259Z,101173.63
2022-11-29T23:29:12.200Z,101175.25
2022-11-29T23:31:39.336Z,101166.59
2022-11-29T23:34:06.008Z,101173.44
2022-11-29T23:36:32.590Z,101169.16
2022-11-29T23:38:59.300Z,101176.94
2022-11-29T23:41:25.915Z,101178.41
2022-11-29T23:43:52.523Z,101172.69
2022-11-29T23:46:21.701Z,101174.88
2022-11-29T23:48:48.387Z,101175.06
2022-11-29T23:51:15.533Z,101182.69
2022-11-29T23:53:42.320Z,101175.47
2022-11-29T23:56:13.182Z,101180.41
2022-11-29T23:58:40.090Z,101172.41
